Time;durP1;ratioP1;P1;durP2;ratioP2;P2;SDS_P1;SDS_P2;PMS_P1;PMS_P2;Temp;Humidity;BMP_temperature;BMP_pressure;BME280_temperature;BME280_humidity;BME280_pressure;Samples;Min_cycle;Max_cycle;Signal;HPM_P1;HPM_P2
2022/06/09 00:01:40;;;;;;;87.68;28.80;;;;;;;;;;5012483;28;20088;-64
2022/06/09 00:04:20;;;;;;;76.93;28.05;;;;;;;;;;5010832;28;20069;-63
2022/06/09 00:06:55;;;;;;;109.78;31.15;;;;;;;;;;5012296;28;20041;-63
2022/06/09 00:09:23;;;;;;;96.43;30.30;;;;;;;;;;5012209;28;20046;-64
2022/06/09 00:11:50;;;;;;;104.05;29.88;;;;;;;;;;5012124;28;20041;-63
2022/06/09 00:14:17;;;;;;;138.95;32.58;;;;;;;;;;5012053;28;20197;-64
2022/06/09 00:16:43;;;;;;;79.88;26.02;;;;;;;;;;5011960;28;20065;-64
2022/06/09 00:19:09;;;;;;;79.32;28.23;;;;;;;;;;5012074;28;20113;-64
2022/06/09 00:21:35;;;;;;;79.25;25.95;;;;;;;;;;5012119;28;20115;-64
2022/06/09 00:24:02;;;;;;;91.05;26.17;;;;;;;;;;5011949;28;20086;-64
2022/06/09 00:26:29;;;;;;;80.90;26.75;;;;;;;;;;5011961;28;20050;-64
2022/06/09 00:28:55;;;;;;;81.82;26.52;;;;;;;;;;5011905;28;20054;-64
2022/06/09 00:31:21;;;;;;;109.63;29.15;;;;;;;;;;5011647;28;20054;-64
2022/06/09 00:33:47;;;;;;;104.32;29.45;;;;;;;;;;5011839;28;20072;-64
2022/06/09 00:36:13;;;;;;;110.07;29.48;;;;;;;;;;5011793;28;20137;-64
2022/06/09 00:38:39;;;;;;;72.03;23.63;;;;;;;;;;5011988;28;20050;-65
2022/06/09 00:41:05;;;;;;;113.53;29.33;;;;;;;;;;5012009;28;20069;-64
2022/06/09 00:43:31;;;;;;;;;;;;;;;;;;5010656;28;20053;-64
2022/06/09 00:46:03;;;;;;;78.03;25.08;;;;;;;;;;5011781;28;20369;-64
2022/06/09 00:48:35;;;;;;;95.05;27.17;;;;;;;;;;5009923;28;20093;-64
2022/06/09 00:51:26;;;;;;;106.75;28.77;;;;;;;;;;5011009;28;20110;-64
2022/06/09 00:54:07;;;;;;;116.45;28.95;;;;;;;;;;5008660;28;20137;-64
2022/06/09 00:56:36;;;;;;;81.68;27.60;;;;;;;;;;5011656;28;20482;-64
2022/06/09 00:59:02;;;;;;;88.15;26.33;;;;;;;;;;5011779;28;20077;-64
2022/06/09 01:01:28;;;;;;;;;;;;;;;;;;5011736;28;20056;-64
2022/06/09 01:04:02;;;;;;;85.47;26.10;;;;;;;;;;5011687;28;19947;-64
2022/06/09 01:06:30;;;;;;;111.78;27.92;;;;;;;;;;5011498;28;20045;-64
2022/06/09 01:09:06;;;;;;;82.72;27.60;;;;;;;;;;5011076;28;20089;-64
2022/06/09 01:11:32;;;;;;;85.90;28.63;;;;;;;;;;5010019;28;20107;-64
2022/06/09 01:13:58;;;;;;;;;;;;;;;;;;5011477;28;20149;-64
2022/06/09 01:16:27;;;;;;;90.60;27.20;;;;;;;;;;5011638;28;19921;-64
2022/06/09 01:19:05;;;;;;;160.10;35.08;;;;;;;;;;5011375;28;20132;-64
2022/06/09 01:21:31;;;;;;;83.40;26.30;;;;;;;;;;5011326;28;20125;-64
2022/06/09 01:23:57;;;;;;;85.25;25.98;;;;;;;;;;5011235;28;20070;-64
2022/06/09 01:26:46;;;;;;;103.38;28.65;;;;;;;;;;5009686;28;20108;-64
2022/06/09 01:29:18;;;;;;;134.32;33.05;;;;;;;;;;5000831;28;20050;-64
2022/06/09 01:31:45;;;;;;;103.97;31.17;;;;;;;;;;5011301;28;20123;-64
2022/06/09 01:34:11;;;;;;;87.55;27.30;;;;;;;;;;5011020;28;20089;-64
2022/06/09 01:36:41;;;;;;;122.45;30.35;;;;;;;;;;5011101;28;20046;-64
2022/06/09 01:39:08;;;;;;;83.05;28.02;;;;;;;;;;5010895;28;20050;-64
2022/06/09 01:41:34;;;;;;;;;;;;;;;;;;5011140;28;20128;-64
2022/06/09 01:44:00;;;;;;;89.10;29.20;;;;;;;;;;5011017;28;19991;-64
2022/06/09 01:46:33;;;;;;;95.80;29.20;;;;;;;;;;5011963;28;20050;-64
2022/06/09 01:49:02;;;;;;;106.78;30.83;;;;;;;;;;5010239;28;20061;-64
2022/06/09 01:51:29;;;;;;;111.93;31.70;;;;;;;;;;5012222;28;20485;-64
2022/06/09 01:54:01;;;;;;;85.07;29.75;;;;;;;;;;5012101;28;20050;-64
2022/06/09 01:56:45;;;;;;;117.68;31.90;;;;;;;;;;5011392;28;20054;-64
2022/06/09 01:59:15;;;;;;;93.93;28.92;;;;;;;;;;5012336;28;20053;-64
2022/06/09 02:01:43;;;;;;;97.97;31.95;;;;;;;;;;5013477;28;20367;-64
2022/06/09 02:04:14;;;;;;;116.32;32.88;;;;;;;;;;5012787;28;20183;-64
2022/06/09 02:06:41;;;;;;;73.65;27.67;;;;;;;;;;5012938;28;20148;-64
2022/06/09 02:09:07;;;;;;;81.38;29.98;;;;;;;;;;5013174;28;20072;-64
2022/06/09 02:11:34;;;;;;;129.88;35.17;;;;;;;;;;5012219;28;20052;-64
2022/06/09 02:14:00;;;;;;;;;;;;;;;;;;5011035;28;20057;-64
2022/06/09 02:16:27;;;;;;;107.85;33.35;;;;;;;;;;5012191;28;19921;-64
2022/06/09 02:18:56;;;;;;;115.30;33.85;;;;;;;;;;5012575;28;20136;-64
2022/06/09 02:21:30;;;;;;;106.72;33.45;;;;;;;;;;5012852;28;20042;-64
2022/06/09 02:23:57;;;;;;;109.03;33.92;;;;;;;;;;5011389;28;20054;-64
2022/06/09 02:26:23;;;;;;;81.03;29.92;;;;;;;;;;5011553;28;20049;-64
2022/06/09 02:28:49;;;;;;;;;;;;;;;;;;5012460;28;20081;-64
2022/06/09 02:31:17;;;;;;;113.32;34.08;;;;;;;;;;5012047;28;20352;-65
2022/06/09 02:33:43;;;;;;;77.93;30.60;;;;;;;;;;5011852;28;20056;-64
2022/06/09 02:36:09;;;;;;;;;;;;;;;;;;5012519;28;20046;-64
2022/06/09 02:38:35;;;;;;;119.93;34.72;;;;;;;;;;5012293;28;20013;-65
2022/06/09 02:41:01;;;;;;;92.55;31.98;;;;;;;;;;5012385;28;20052;-64
2022/06/09 02:43:27;;;;;;;87.07;31.48;;;;;;;;;;5012061;28;20604;-64
2022/06/09 02:45:53;;;;;;;147.10;36.92;;;;;;;;;;5011900;28;20056;-64
2022/06/09 02:48:20;;;;;;;;;;;;;;;;;;5012309;28;20100;-64
2022/06/09 02:50:46;;;;;;;91.50;32.95;;;;;;;;;;5011421;28;19995;-64
2022/06/09 02:53:12;;;;;;;87.78;31.88;;;;;;;;;;5011565;28;20393;-63
2022/06/09 02:55:39;;;;;;;109.05;36.55;;;;;;;;;;5011708;28;20050;-64
2022/06/09 02:58:05;;;;;;;98.85;32.50;;;;;;;;;;5011563;28;20050;-64
2022/06/09 03:00:32;;;;;;;94.15;32.90;;;;;;;;;;5012141;28;20046;-64
2022/06/09 03:02:59;;;;;;;102.35;34.58;;;;;;;;;;5010841;28;20046;-64
2022/06/09 03:05:29;;;;;;;127.95;36.33;;;;;;;;;;5011857;28;20093;-64
2022/06/09 03:07:55;;;;;;;102.55;35.72;;;;;;;;;;5011993;28;20069;-64
2022/06/09 03:10:22;;;;;;;91.38;34.03;;;;;;;;;;5011959;28;20089;-64
2022/06/09 03:12:48;;;;;;;111.63;33.47;;;;;;;;;;5011942;28;20057;-64
2022/06/09 03:15:15;;;;;;;96.13;34.17;;;;;;;;;;5012053;28;20050;-64
2022/06/09 03:17:42;;;;;;;80.45;30.58;;;;;;;;;;5012327;28;20151;-64
2022/06/09 03:20:09;;;;;;;98.18;34.67;;;;;;;;;;5012194;28;20042;-64
2022/06/09 03:22:36;;;;;;;127.93;36.03;;;;;;;;;;5012673;28;20052;-64
2022/06/09 03:25:02;;;;;;;106.15;35.70;;;;;;;;;;5012881;28;20042;-64
2022/06/09 03:27:28;;;;;;;85.93;32.17;;;;;;;;;;5016687;28;20045;-64
2022/06/09 03:29:54;;;;;;;86.53;34.15;;;;;;;;;;5016154;28;20379;-64
2022/06/09 03:32:22;;;;;;;88.00;34.00;;;;;;;;;;5016243;28;20054;-64
2022/06/09 03:34:48;;;;;;;91.97;34.47;;;;;;;;;;5016673;28;20049;-63
2022/06/09 03:37:14;;;;;;;77.28;33.88;;;;;;;;;;5016687;28;20042;-63
2022/06/09 03:39:40;;;;;;;88.38;34.22;;;;;;;;;;5016425;28;20053;-64
2022/06/09 03:42:06;;;;;;;92.95;33.90;;;;;;;;;;5016468;28;20086;-64
2022/06/09 03:44:32;;;;;;;101.55;35.13;;;;;;;;;;5017217;28;20124;-64
2022/06/09 03:46:58;;;;;;;99.85;34.80;;;;;;;;;;4998893;28;20046;-64
2022/06/09 03:49:24;;;;;;;101.05;35.55;;;;;;;;;;5014754;28;20060;-64
2022/06/09 03:51:50;;;;;;;90.50;34.47;;;;;;;;;;5016226;28;20104;-64
2022/06/09 03:54:16;;;;;;;96.45;36.15;;;;;;;;;;5016286;28;20049;-65
2022/06/09 03:56:42;;;;;;;115.82;38.65;;;;;;;;;;5016241;28;20041;-64
2022/06/09 03:59:10;;;;;;;84.68;34.53;;;;;;;;;;5015916;28;20049;-64
2022/06/09 04:01:36;;;;;;;91.53;36.45;;;;;;;;;;5014948;28;20050;-65
2022/06/09 04:04:02;;;;;;;99.82;37.35;;;;;;;;;;5013125;28;20481;-64
2022/06/09 04:06:28;;;;;;;97.45;36.40;;;;;;;;;;5014055;28;20077;-64
2022/06/09 04:08:54;;;;;;;93.47;36.15;;;;;;;;;;5015133;28;20046;-64
2022/06/09 04:11:21;;;;;;;90.05;35.58;;;;;;;;;;5015194;28;20147;-63
2022/06/09 04:13:47;;;;;;;91.40;38.95;;;;;;;;;;5016358;28;20057;-64
2022/06/09 04:16:24;;;;;;;92.38;38.05;;;;;;;;;;5015817;28;20046;-64
2022/06/09 04:18:50;;;;;;;;;;;;;;;;;;5016042;28;20053;-64
2022/06/09 04:21:16;;;;;;;90.15;36.22;;;;;;;;;;5014652;28;19922;-64
2022/06/09 04:23:43;;;;;;;91.97;36.70;;;;;;;;;;5015686;28;20050;-64
2022/06/09 04:26:13;;;;;;;100.57;37.55;;;;;;;;;;5015239;28;20046;-64
2022/06/09 04:28:39;;;;;;;77.78;34.63;;;;;;;;;;5015198;28;20042;-64
2022/06/09 04:31:05;;;;;;;92.90;37.95;;;;;;;;;;5014869;28;20172;-64
2022/06/09 04:33:31;;;;;;;103.32;41.08;;;;;;;;;;5015105;28;20115;-64
2022/06/09 04:35:57;;;;;;;82.53;38.33;;;;;;;;;;5013973;28;20085;-64
2022/06/09 04:38:23;;;;;;;94.28;38.67;;;;;;;;;;5015222;28;20050;-63
2022/06/09 04:40:49;;;;;;;85.05;36.67;;;;;;;;;;5013645;28;20038;-64
2022/06/09 04:43:15;;;;;;;87.68;37.53;;;;;;;;;;5015380;28;20058;-64
2022/06/09 04:45:41;;;;;;;71.38;33.22;;;;;;;;;;5014641;28;20046;-64
2022/06/09 04:48:09;;;;;;;78.13;36.42;;;;;;;;;;5013215;28;20104;-63
2022/06/09 04:50:36;;;;;;;69.15;33.05;;;;;;;;;;5013088;28;20056;-63
2022/06/09 04:53:02;;;;;;;76.30;36.97;;;;;;;;;;5014474;28;20111;-63
2022/06/09 04:55:28;;;;;;;84.38;36.05;;;;;;;;;;5012792;28;20089;-63
2022/06/09 04:57:55;;;;;;;77.22;35.65;;;;;;;;;;5014125;28;20504;-63
2022/06/09 05:00:21;;;;;;;;;;;;;;;;;;5014377;28;20038;-63
2022/06/09 05:02:47;;;;;;;77.53;38.08;;;;;;;;;;5014193;28;20308;-63
2022/06/09 05:05:23;;;;;;;82.10;38.33;;;;;;;;;;5013687;28;20056;-63
2022/06/09 05:07:49;;;;;;;87.55;38.83;;;;;;;;;;5012511;28;20042;-63
2022/06/09 05:10:15;;;;;;;;;;;;;;;;;;5014100;28;20395;-63
2022/06/09 05:12:42;;;;;;;81.18;39.17;;;;;;;;;;5014030;28;19975;-63
2022/06/09 05:15:09;;;;;;;78.63;37.45;;;;;;;;;;5013751;28;20060;-63
2022/06/09 05:17:35;;;;;;;82.22;40.38;;;;;;;;;;5014236;28;20041;-63
2022/06/09 05:20:01;;;;;;;91.30;42.05;;;;;;;;;;5013010;28;20096;-63
2022/06/09 05:22:27;;;;;;;80.95;39.45;;;;;;;;;;5013256;28;20093;-63
2022/06/09 05:24:53;;;;;;;96.20;42.95;;;;;;;;;;5014213;28;20088;-63
2022/06/09 05:27:20;;;;;;;82.15;39.28;;;;;;;;;;5013634;28;20061;-63
2022/06/09 05:29:46;;;;;;;89.13;41.28;;;;;;;;;;5012480;28;20076;-63
2022/06/09 05:32:13;;;;;;;82.95;42.28;;;;;;;;;;5013237;28;20552;-63
2022/06/09 05:34:39;;;;;;;84.60;41.72;;;;;;;;;;5013508;28;20048;-63
2022/06/09 05:37:05;;;;;;;80.30;38.67;;;;;;;;;;5012903;28;20143;-63
2022/06/09 05:45:03;;;;;;;83.95;40.00;;;;;;;;;;5013480;28;20069;-63
2022/06/09 05:47:29;;;;;;;84.57;40.45;;;;;;;;;;5010437;28;20438;-63
2022/06/09 05:49:55;;;;;;;86.72;41.55;;;;;;;;;;5013329;28;20049;-63
2022/06/09 05:52:24;;;;;;;79.30;38.35;;;;;;;;;;5012232;28;20548;-63
2022/06/09 05:54:51;;;;;;;80.40;40.67;;;;;;;;;;5012296;28;20049;-64
2022/06/09 05:57:17;;;;;;;70.20;32.72;;;;;;;;;;5011826;28;20050;-64
2022/06/09 05:59:43;;;;;;;62.75;32.47;;;;;;;;;;5011647;28;20155;-64
2022/06/09 06:02:10;;;;;;;58.65;31.60;;;;;;;;;;5010385;28;20054;-64
2022/06/09 06:04:36;;;;;;;65.38;33.75;;;;;;;;;;5010328;28;20416;-64
2022/06/09 06:07:03;;;;;;;60.20;34.40;;;;;;;;;;5010698;28;20045;-63
2022/06/09 06:09:29;;;;;;;64.30;34.20;;;;;;;;;;5009250;28;20128;-63
2022/06/09 06:11:55;;;;;;;63.95;36.20;;;;;;;;;;5009894;28;20122;-63
2022/06/09 06:14:22;;;;;;;;;;;;;;;;;;5009261;28;20152;-63
2022/06/09 06:16:48;;;;;;;67.38;35.45;;;;;;;;;;5010602;28;20377;-63
2022/06/09 06:19:17;;;;;;;66.60;35.42;;;;;;;;;;5010740;28;20331;-63
2022/06/09 06:21:43;;;;;;;62.58;34.50;;;;;;;;;;5010256;28;20169;-63
2022/06/09 06:24:10;;;;;;;67.32;35.83;;;;;;;;;;5008338;28;20351;-63
2022/06/09 06:26:36;;;;;;;57.85;30.33;;;;;;;;;;5009322;28;20046;-63
2022/06/09 06:29:02;;;;;;;;;;;;;;;;;;5010283;28;20374;-63
2022/06/09 06:31:28;;;;;;;56.33;32.65;;;;;;;;;;5010022;28;19937;-63
2022/06/09 06:33:54;;;;;;;61.08;34.40;;;;;;;;;;5010543;28;20042;-63
2022/06/09 06:36:20;;;;;;;62.75;35.00;;;;;;;;;;5010098;28;20046;-64
2022/06/09 06:38:47;;;;;;;56.75;32.38;;;;;;;;;;5010346;28;20112;-63
2022/06/09 06:41:13;;;;;;;54.40;32.95;;;;;;;;;;5010303;28;20042;-63
2022/06/09 06:43:41;;;;;;;54.42;31.33;;;;;;;;;;5010092;28;20050;-63
2022/06/09 06:46:07;;;;;;;51.63;31.17;;;;;;;;;;5010784;28;20545;-63
2022/06/09 06:48:34;;;;;;;48.20;29.38;;;;;;;;;;5010286;28;20397;-64
2022/06/09 06:51:00;;;;;;;45.40;26.92;;;;;;;;;;5009518;28;20081;-64
2022/06/09 06:53:26;;;;;;;37.97;24.77;;;;;;;;;;5009877;28;20350;-64
2022/06/09 06:55:52;;;;;;;40.03;24.58;;;;;;;;;;5009996;28;20213;-64
2022/06/09 06:58:18;;;;;;;39.03;24.55;;;;;;;;;;4992260;28;20057;-63
2022/06/09 07:00:44;;;;;;;41.22;23.77;;;;;;;;;;5013026;28;20050;-63
2022/06/09 07:03:11;;;;;;;42.08;24.50;;;;;;;;;;5013804;28;20156;-64
2022/06/09 07:05:38;;;;;;;38.20;23.60;;;;;;;;;;5013752;28;20136;-64
2022/06/09 07:08:05;;;;;;;38.60;24.48;;;;;;;;;;5013748;28;20052;-69
2022/06/09 07:10:31;;;;;;;35.90;22.05;;;;;;;;;;5013374;28;20053;-63
2022/06/09 07:12:58;;;;;;;32.30;21.10;;;;;;;;;;5013159;28;20054;-65
2022/06/09 07:15:24;;;;;;;29.60;18.63;;;;;;;;;;5011828;28;20049;-64
2022/06/09 07:17:50;;;;;;;35.45;19.77;;;;;;;;;;5013962;28;20046;-64
2022/06/09 07:20:16;;;;;;;35.13;19.35;;;;;;;;;;5013242;28;20046;-75
2022/06/09 07:22:43;;;;;;;31.48;17.52;;;;;;;;;;5013229;28;20050;-74
2022/06/09 07:25:11;;;;;;;30.40;17.90;;;;;;;;;;5012794;28;20054;-73
2022/06/09 07:27:37;;;;;;;29.20;18.58;;;;;;;;;;5012758;28;20050;-74
2022/06/09 07:30:04;;;;;;;24.67;16.85;;;;;;;;;;5011279;28;20089;-74
2022/06/09 07:32:30;;;;;;;27.65;17.08;;;;;;;;;;5012752;28;20131;-74
2022/06/09 07:34:56;;;;;;;27.13;15.65;;;;;;;;;;5012862;28;20061;-67
2022/06/09 07:37:22;;;;;;;26.20;14.82;;;;;;;;;;5012707;28;20137;-66
2022/06/09 07:39:48;;;;;;;20.35;11.50;;;;;;;;;;5013229;28;20067;-66
2022/06/09 07:42:14;;;;;;;19.73;9.82;;;;;;;;;;5012959;28;20045;-67
2022/06/09 07:44:40;;;;;;;18.45;10.35;;;;;;;;;;5012386;28;20132;-67
2022/06/09 07:47:06;;;;;;;17.02;9.30;;;;;;;;;;5012322;28;20177;-65
2022/06/09 07:49:33;;;;;;;19.25;9.52;;;;;;;;;;5010702;28;20136;-65
2022/06/09 07:51:59;;;;;;;17.15;9.45;;;;;;;;;;5011696;28;20042;-68
2022/06/09 07:54:25;;;;;;;;;;;;;;;;;;5011571;28;20394;-68
2022/06/09 07:56:51;;;;;;;20.05;7.93;;;;;;;;;;5010816;28;19933;-65
2022/06/09 07:59:17;;;;;;;18.90;6.60;;;;;;;;;;5012283;28;20422;-64
2022/06/09 08:01:46;;;;;;;12.82;6.30;;;;;;;;;;5012476;28;20107;-65
2022/06/09 08:04:12;;;;;;;15.02;5.63;;;;;;;;;;5011870;28;20060;-66
2022/06/09 08:06:38;;;;;;;12.48;5.57;;;;;;;;;;5012025;28;20128;-67
2022/06/09 08:09:05;;;;;;;12.75;5.80;;;;;;;;;;5011953;28;20142;-69
2022/06/09 08:11:35;;;;;;;11.13;5.30;;;;;;;;;;5010929;28;20084;-73
2022/06/09 08:14:03;;;;;;;15.38;5.82;;;;;;;;;;5012233;28;20046;-75
2022/06/09 08:16:29;;;;;;;12.23;5.03;;;;;;;;;;5010456;28;20046;-86
2022/06/09 08:18:57;;;;;;;15.50;5.53;;;;;;;;;;5011756;28;20522;-70
2022/06/09 08:21:23;;;;;;;11.43;4.93;;;;;;;;;;5011944;28;20128;-70
2022/06/09 08:23:49;;;;;;;14.55;5.10;;;;;;;;;;5011703;28;20239;-67
2022/06/09 08:26:15;;;;;;;10.48;4.53;;;;;;;;;;5010570;28;20064;-72
2022/06/09 08:28:42;;;;;;;12.27;4.00;;;;;;;;;;5011803;28;20413;-72
2022/06/09 08:31:08;;;;;;;11.48;4.25;;;;;;;;;;5010146;28;20104;-70
2022/06/09 08:33:35;;;;;;;12.60;4.53;;;;;;;;;;4994272;28;20049;-66
2022/06/09 08:36:01;;;;;;;11.18;4.03;;;;;;;;;;5011596;28;20165;-71
2022/06/09 08:38:28;;;;;;;11.30;3.83;;;;;;;;;;5010397;28;20050;-67
2022/06/09 08:41:05;;;;;;;11.38;3.20;;;;;;;;;;5010205;28;20054;-69
2022/06/09 08:43:46;;;;;;;13.52;3.88;;;;;;;;;;5010121;28;20061;-67
2022/06/09 08:46:31;;;;;;;7.60;2.80;;;;;;;;;;5011596;28;20050;-65
2022/06/09 08:49:00;;;;;;;11.68;2.92;;;;;;;;;;5011471;28;20050;-65
2022/06/09 08:51:36;;;;;;;11.52;3.03;;;;;;;;;;5011418;28;20071;-71
2022/06/09 08:54:10;;;;;;;9.52;2.92;;;;;;;;;;5011322;28;20141;-68
2022/06/09 08:56:36;;;;;;;14.50;3.95;;;;;;;;;;5011189;28;20141;-72
2022/06/09 08:59:04;;;;;;;10.07;3.03;;;;;;;;;;5011347;28;20125;-69
2022/06/09 09:01:39;;;;;;;8.65;2.97;;;;;;;;;;5009631;28;20125;-68
2022/06/09 09:04:08;;;;;;;10.82;3.10;;;;;;;;;;5011324;28;20069;-75
2022/06/09 09:06:37;;;;;;;9.68;3.17;;;;;;;;;;5011336;28;20090;-74
2022/06/09 09:09:23;;;;;;;8.90;3.55;;;;;;;;;;5011859;28;20106;-75
2022/06/09 09:11:51;;;;;;;10.13;2.60;;;;;;;;;;5011104;28;20096;-77
2022/06/09 09:14:20;;;;;;;10.10;2.50;;;;;;;;;;5011438;28;20062;-73
2022/06/09 09:16:59;;;;;;;11.45;2.90;;;;;;;;;;5009899;28;20107;-83
2022/06/09 09:19:57;;;;;;;10.02;2.60;;;;;;;;;;5011235;28;20392;-82
2022/06/09 09:22:31;;;;;;;9.82;2.70;;;;;;;;;;4986827;28;20061;-72
2022/06/09 09:25:15;;;;;;;10.85;2.72;;;;;;;;;;5009719;28;20135;-76
2022/06/09 09:27:49;;;;;;;11.57;2.63;;;;;;;;;;5009620;28;20077;-72
2022/06/09 09:30:18;;;;;;;11.32;2.63;;;;;;;;;;5010493;28;20049;-71
2022/06/09 09:32:54;;;;;;;13.77;2.70;;;;;;;;;;5010750;28;20085;-71
2022/06/09 09:35:23;;;;;;;8.95;2.40;;;;;;;;;;5009264;28;20338;-72
2022/06/09 09:37:51;;;;;;;12.98;2.50;;;;;;;;;;5010659;28;20081;-73
2022/06/09 09:40:24;;;;;;;12.93;3.33;;;;;;;;;;5010699;28;20068;-76
2022/06/09 09:42:52;;;;;;;12.50;2.58;;;;;;;;;;5010412;28;20054;-74
2022/06/09 09:45:19;;;;;;;11.98;2.78;;;;;;;;;;5010130;28;20454;-74
2022/06/09 09:47:54;;;;;;;11.55;2.78;;;;;;;;;;5010105;28;20064;-75
2022/06/09 09:50:26;;;;;;;14.18;2.90;;;;;;;;;;5010416;28;20056;-78
2022/06/09 09:53:15;;;;;;;9.90;2.85;;;;;;;;;;5010178;28;20105;-76
2022/06/09 09:55:49;;;;;;;10.10;2.83;;;;;;;;;;5009674;28;20056;-72
2022/06/09 09:58:21;;;;;;;10.48;2.72;;;;;;;;;;5010558;28;20105;-82
2022/06/09 10:00:49;;;;;;;13.65;2.85;;;;;;;;;;5009342;28;20458;-74
2022/06/09 10:08:52;;;;;;;10.82;3.00;;;;;;;;;;5008681;28;20045;-74
2022/06/09 10:14:25;;;;;;;11.88;2.78;;;;;;;;;;5009454;28;20144;-84
2022/06/09 10:16:51;;;;;;;13.10;2.75;;;;;;;;;;5009721;28;20117;-70
2022/06/09 10:19:19;;;;;;;13.73;2.85;;;;;;;;;;5009582;28;20122;-71
2022/06/09 10:21:51;;;;;;;11.77;2.80;;;;;;;;;;5009679;28;20072;-71
2022/06/09 10:24:20;;;;;;;15.20;3.42;;;;;;;;;;5009346;28;20064;-72
2022/06/09 10:26:51;;;;;;;12.88;3.00;;;;;;;;;;5009037;28;20148;-74
2022/06/09 10:29:17;;;;;;;12.18;3.53;;;;;;;;;;5009325;28;20358;-74
2022/06/09 10:31:52;;;;;;;19.50;2.80;;;;;;;;;;5009550;28;20129;-73
2022/06/09 10:34:37;;;;;;;8.15;2.45;;;;;;;;;;5007829;28;20339;-70
2022/06/09 10:37:25;;;;;;;12.25;2.50;;;;;;;;;;5009572;28;20133;-72
2022/06/09 10:40:06;;;;;;;11.93;2.88;;;;;;;;;;5009622;28;20049;-70
2022/06/09 10:42:41;;;;;;;9.35;2.28;;;;;;;;;;5007957;28;20129;-71
2022/06/09 10:45:26;;;;;;;11.65;2.92;;;;;;;;;;5009120;28;20041;-72
2022/06/09 10:56:16;;;;;;;9.43;2.60;;;;;;;;;;5010069;28;20064;-70
2022/06/09 10:58:48;;;;;;;11.50;2.50;;;;;;;;;;5009753;28;20160;-70
2022/06/09 11:01:19;;;;;;;14.32;2.55;;;;;;;;;;5008204;28;20093;-68
2022/06/09 11:03:48;;;;;;;9.55;2.50;;;;;;;;;;5009247;28;20466;-72
2022/06/09 11:06:17;;;;;;;8.88;2.53;;;;;;;;;;5009445;28;20545;-75
2022/06/09 11:08:46;;;;;;;10.75;2.50;;;;;;;;;;5009416;28;20062;-71
2022/06/09 11:11:18;;;;;;;10.35;3.13;;;;;;;;;;5009071;28;20041;-69
2022/06/09 11:13:59;;;;;;;9.80;2.10;;;;;;;;;;5009472;28;20072;-73
2022/06/09 11:16:40;;;;;;;12.15;2.55;;;;;;;;;;5009463;28;20085;-79
2022/06/09 11:19:09;;;;;;;9.05;2.20;;;;;;;;;;5008968;28;20136;-77
2022/06/09 11:21:38;;;;;;;10.05;2.30;;;;;;;;;;5008840;28;20122;-80
2022/06/09 11:24:26;;;;;;;10.35;2.55;;;;;;;;;;5009175;28;20069;-78
2022/06/09 11:27:03;;;;;;;8.85;2.10;;;;;;;;;;4991365;28;20103;-70
2022/06/09 11:29:29;;;;;;;11.27;2.33;;;;;;;;;;5009187;28;20145;-70
2022/06/09 11:32:10;;;;;;;12.65;2.35;;;;;;;;;;5009638;28;20091;-73
2022/06/09 11:34:54;;;;;;;8.73;1.90;;;;;;;;;;5009298;28;20049;-82
2022/06/09 11:37:30;;;;;;;9.10;2.50;;;;;;;;;;5010900;28;20124;-80
2022/06/09 11:40:03;;;;;;;9.82;2.20;;;;;;;;;;5010715;28;20054;-83
2022/06/09 11:42:34;;;;;;;8.85;2.13;;;;;;;;;;5011983;28;20077;-81
2022/06/09 11:45:02;;;;;;;11.20;2.45;;;;;;;;;;5011846;28;20108;-83
2022/06/09 11:47:31;;;;;;;12.45;2.30;;;;;;;;;;5013809;28;20152;-79
2022/06/09 11:50:08;;;;;;;8.00;2.22;;;;;;;;;;5013584;28;20084;-79
2022/06/09 11:52:34;;;;;;;;;;;;;;;;;;5014976;28;20539;-79
2022/06/09 11:55:03;;;;;;;12.50;2.55;;;;;;;;;;5014602;28;19925;-82
2022/06/09 11:57:32;;;;;;;11.85;2.63;;;;;;;;;;5014007;28;20037;-65
2022/06/09 11:59:58;;;;;;;9.80;2.60;;;;;;;;;;5014123;28;20053;-65
2022/06/09 12:02:24;;;;;;;;;;;;;;;;;;5014856;28;20132;-65
2022/06/09 12:04:50;;;;;;;12.52;2.40;;;;;;;;;;5015698;28;19921;-64
2022/06/09 12:07:18;;;;;;;8.95;2.15;;;;;;;;;;5015350;28;20047;-66
2022/06/09 12:09:44;;;;;;;11.98;2.63;;;;;;;;;;5015288;28;20050;-65
2022/06/09 12:12:29;;;;;;;11.60;2.78;;;;;;;;;;5014840;28;20081;-65
2022/06/09 12:15:14;;;;;;;11.43;2.38;;;;;;;;;;5015331;28;20132;-66
2022/06/09 12:17:54;;;;;;;9.57;2.63;;;;;;;;;;5015782;28;20052;-67
2022/06/09 12:20:30;;;;;;;12.43;2.65;;;;;;;;;;5013815;28;20050;-65
2022/06/09 12:23:04;;;;;;;12.33;2.83;;;;;;;;;;5015158;28;20057;-68
2022/06/09 12:25:33;;;;;;;12.70;3.15;;;;;;;;;;5013878;28;20293;-65
2022/06/09 12:28:00;;;;;;;15.23;2.75;;;;;;;;;;5014480;28;20072;-65
2022/06/09 12:30:29;;;;;;;8.93;2.50;;;;;;;;;;5013996;28;20082;-65
2022/06/09 12:33:14;;;;;;;10.55;2.53;;;;;;;;;;5013490;28;20061;-65
2022/06/09 12:36:02;;;;;;;10.68;2.40;;;;;;;;;;5012874;28;20056;-64
2022/06/09 12:38:31;;;;;;;10.57;2.67;;;;;;;;;;5013196;28;20395;-65
2022/06/09 12:40:59;;;;;;;10.52;2.70;;;;;;;;;;5013216;28;20120;-66
2022/06/09 12:43:31;;;;;;;15.10;3.53;;;;;;;;;;5013960;28;20355;-67
2022/06/09 12:46:23;;;;;;;12.50;3.00;;;;;;;;;;5011685;28;20042;-67
2022/06/09 12:48:50;;;;;;;13.35;2.53;;;;;;;;;;5010868;28;20057;-66
2022/06/09 12:51:21;;;;;;;14.52;2.85;;;;;;;;;;5011809;28;20128;-66
2022/06/09 12:53:52;;;;;;;10.27;2.65;;;;;;;;;;5012575;28;20042;-66
2022/06/09 12:56:24;;;;;;;11.88;2.30;;;;;;;;;;5013190;28;20057;-66
2022/06/09 12:58:51;;;;;;;9.52;2.30;;;;;;;;;;5012263;28;20053;-64
2022/06/09 13:01:19;;;;;;;6.00;1.80;;;;;;;;;;5013391;28;20100;-65
2022/06/09 13:03:50;;;;;;;10.40;2.50;;;;;;;;;;5013263;28;20046;-65
2022/06/09 13:06:22;;;;;;;11.88;2.97;;;;;;;;;;5013256;28;20054;-66
2022/06/09 13:08:49;;;;;;;9.50;2.63;;;;;;;;;;5012731;28;20092;-66
2022/06/09 13:12:50;;;;;;;14.85;2.85;;;;;;;;;;5012011;28;20062;-67
2022/06/09 13:14:11;;;;;;;9.27;2.28;;;;;;;;;;5011748;28;20057;-66
2022/06/09 13:16:40;;;;;;;11.52;2.67;;;;;;;;;;5011032;28;20133;-65
2022/06/09 13:19:07;;;;;;;9.40;2.28;;;;;;;;;;5012523;28;20056;-65
2022/06/09 13:21:41;;;;;;;10.93;2.50;;;;;;;;;;5012917;28;20038;-65
2022/06/09 13:24:12;;;;;;;11.32;2.20;;;;;;;;;;5012736;28;20068;-65
2022/06/09 13:26:43;;;;;;;8.35;2.25;;;;;;;;;;5014332;28;20371;-65
2022/06/09 13:29:11;;;;;;;13.05;2.60;;;;;;;;;;5012617;28;20097;-64
2022/06/09 13:31:44;;;;;;;8.35;2.10;;;;;;;;;;5012468;28;20125;-65
2022/06/09 13:34:10;;;;;;;7.88;1.90;;;;;;;;;;5013534;28;20042;-65
2022/06/09 13:36:38;;;;;;;8.05;2.22;;;;;;;;;;5013512;28;20132;-64
2022/06/09 13:39:23;;;;;;;10.13;2.30;;;;;;;;;;5013394;28;20041;-65
2022/06/09 13:41:49;;;;;;;11.57;2.30;;;;;;;;;;4994856;28;20085;-63
2022/06/09 13:44:17;;;;;;;9.32;2.40;;;;;;;;;;5013177;28;20669;-65
2022/06/09 13:47:01;;;;;;;8.07;2.00;;;;;;;;;;5012537;28;20471;-63
2022/06/09 13:49:32;;;;;;;8.35;2.42;;;;;;;;;;5013602;28;20096;-64
2022/06/09 13:52:00;;;;;;;8.70;2.20;;;;;;;;;;5012988;28;20488;-64
2022/06/09 13:54:28;;;;;;;8.90;2.40;;;;;;;;;;5013563;28;20050;-63
2022/06/09 13:56:54;;;;;;;9.70;2.17;;;;;;;;;;5012313;28;20486;-64
2022/06/09 13:59:20;;;;;;;;;;;;;;;;;;5012058;28;20092;-63
2022/06/09 14:01:48;;;;;;;8.85;2.17;;;;;;;;;;5012942;28;19969;-64
2022/06/09 14:04:31;;;;;;;8.25;2.15;;;;;;;;;;5011745;28;20145;-65
2022/06/09 14:06:58;;;;;;;7.68;2.05;;;;;;;;;;5011958;28;20136;-63
2022/06/09 14:09:24;;;;;;;10.80;2.55;;;;;;;;;;5011197;28;20124;-62
2022/06/09 14:11:50;;;;;;;9.63;2.13;;;;;;;;;;5012027;28;20109;-64
2022/06/09 14:14:16;;;;;;;;;;;;;;;;;;5011805;28;20064;-66
2022/06/09 14:16:44;;;;;;;9.18;2.00;;;;;;;;;;5010049;28;19921;-63
2022/06/09 14:19:16;;;;;;;7.85;2.03;;;;;;;;;;5011737;28;20068;-64
2022/06/09 14:21:42;;;;;;;10.43;2.50;;;;;;;;;;5011780;28;20068;-63
2022/06/09 14:24:14;;;;;;;11.93;2.17;;;;;;;;;;5013241;28;20050;-63
2022/06/09 14:26:40;;;;;;;10.23;2.08;;;;;;;;;;5012662;28;20096;-64
2022/06/09 14:29:06;;;;;;;;;;;;;;;;;;5013588;28;20054;-64
2022/06/09 14:31:32;;;;;;;13.57;2.75;;;;;;;;;;5012797;28;19921;-64
2022/06/09 14:34:00;;;;;;;6.93;2.20;;;;;;;;;;5012040;28;20081;-64
2022/06/09 14:36:27;;;;;;;10.32;2.15;;;;;;;;;;5012225;28;20597;-64
2022/06/09 14:38:53;;;;;;;7.93;2.20;;;;;;;;;;5011894;28;20053;-65
2022/06/09 14:41:20;;;;;;;9.80;2.50;;;;;;;;;;5011782;28;20041;-64
2022/06/09 14:43:47;;;;;;;8.27;2.00;;;;;;;;;;5011447;28;20073;-64
2022/06/09 14:46:14;;;;;;;8.98;2.22;;;;;;;;;;5012579;28;20050;-66
2022/06/09 14:48:40;;;;;;;10.90;2.50;;;;;;;;;;5011664;28;20053;-63
2022/06/09 14:51:07;;;;;;;;;;;;;;;;;;5012424;28;20490;-64
2022/06/09 14:53:33;;;;;;;10.43;2.30;;;;;;;;;;5011453;28;20013;-66
2022/06/09 14:55:59;;;;;;;8.85;2.17;;;;;;;;;;5011282;28;20141;-65
2022/06/09 14:58:26;;;;;;;8.73;2.20;;;;;;;;;;5009863;28;20073;-63
2022/06/09 15:00:53;;;;;;;10.05;2.40;;;;;;;;;;5010701;28;20479;-63
2022/06/09 15:03:19;;;;;;;11.35;2.40;;;;;;;;;;5010282;28;20081;-64
2022/06/09 15:05:45;;;;;;;;;;;;;;;;;;5011476;28;20117;-63